METAR Data
IDs: Format: Raw Decoded Include TAF

Data at: 1800 UTC 26 Oct 2021

KT74 261755Z AUTO 18011G18KT 10SM BKN027 29/22 A2985 RMK AO2 T02900223 10297 20225
KT74 261735Z AUTO 18014G20KT 10SM SCT025 BKN032 28/22 A2986 RMK AO2 T02850221
KT74 261715Z AUTO 17016G20KT 10SM BKN025 BKN030 28/22 A2987 RMK AO2 T02780218
KT74 261655Z AUTO 17014G22KT 10SM BKN023 BKN030 28/22 A2987 RMK AO2 T02830219
KT74 261635Z AUTO 19017G20KT 10SM BKN023 28/22 A2988 RMK AO2 T02760215
KT74 261615Z AUTO 17016KT 10SM BKN023 27/22 A2989 RMK AO2 T02680217
KT74 261555Z AUTO 17014G19KT 10SM SCT017 BKN026 28/23 A2990 RMK AO2 T02790228
KT74 261535Z AUTO 17014G18KT 10SM BKN013 OVC019 26/22 A2990 RMK AO2 T02570225
KT74 261515Z AUTO 17012KT 10SM BKN009 OVC014 25/23 A2991 RMK AO2 T02530230
KT74 261455Z AUTO 16013KT 10SM BKN009 OVC012 25/23 A2991 RMK AO2 T02500234
KT74 261435Z AUTO 17013G17KT 10SM OVC007 24/23 A2991 RMK AO2 T02430232
KT74 261415Z AUTO 16010KT 7SM OVC005 24/23 A2991 RMK AO2 T02380230
KT74 261355Z AUTO 17007KT 7SM BR OVC005 24/23 A2991 RMK AO2 T02350229
KT74 261335Z AUTO 16006KT 5SM BR OVC003 23/23 A2991 RMK AO2 T02310227
KT74 261315Z AUTO 17006KT 4SM BR OVC003 23/22 A2990 RMK AO2 T02280225
KT74 261255Z AUTO 16006KT 4SM BR OVC003 23/22 A2991 RMK AO2 T02270223
KT74 261235Z AUTO 17007KT 4SM BR OVC003 23/22 A2991 RMK AO2 T02260223
KT74 261215Z AUTO 16006KT 5SM BR OVC003 22/22 A2991 RMK AO2 T02250221
KT74 261155Z AUTO 17006KT 7SM BR OVC005 23/22 A2991 RMK AO2 T02260221 10226 20208
KT74 261135Z AUTO 17005KT 7SM BR BKN005 OVC022 22/22 A2992 RMK AO2 T02250221
KT74 261115Z AUTO 17006KT 7SM BR BKN007 OVC022 22/22 A2991 RMK AO2 T02250220
KT74 261055Z AUTO 17005KT 7SM BR SCT009 OVC022 22/22 A2991 RMK AO2 T02230218
KT74 261035Z AUTO 16005KT 22/22 A2991 RMK AO2 T02230217
KT74 261015Z AUTO 16006KT 10SM SCT007 OVC016 22/22 A2991 RMK AO2 T02230217
KT74 260955Z AUTO 18008KT 10SM BKN005 OVC012 22/22 A2992 RMK AO2 T02220217
KT74 260935Z AUTO 17008KT 3SM BR OVC003 22/22 A2992 RMK AO2 T02200217
KT74 260915Z AUTO 17009KT 1 1/4SM BR OVC003 22/22 A2991 RMK AO2 T02180216
KT74 260855Z AUTO 18006KT 5SM BR BKN003 21/21 A2992 RMK AO2 T02130210
KT74 260835Z AUTO 17004KT 5SM BR SCT003 21/21 A2992 RMK AO2 T02080206
KT74 260815Z AUTO 16004KT 5SM BR CLR 21/21 A2992 RMK AO2 T02100206
KT74 260755Z AUTO 18005KT 7SM CLR 21/21 A2992 RMK AO2 T02120208
KT74 260735Z AUTO 18004KT 10SM CLR 21/21 A2993 RMK AO2 T02130208
KT74 260715Z AUTO 17004KT 10SM CLR 21/21 A2993 RMK AO2
KT74 260655Z AUTO 16005KT 10SM CLR 22/21 A2993 RMK AO2 T02160210
KT74 260635Z AUTO 17005KT 10SM CLR 22/21 A2993 RMK AO2
KT74 260615Z AUTO 17004KT 10SM CLR 22/21 A2993 RMK AO2 T02170210
KT74 260555Z AUTO 17005KT 10SM CLR 22/21 A2994 RMK AO2 T02160210 10261 20203
KT74 260535Z AUTO 16003KT 7SM CLR 21/21 A2994 RMK AO2 T02120207
KT74 260515Z AUTO 16003KT 7SM CLR 21/21 A2994 RMK AO2 T02140209
KT74 260455Z AUTO 17004KT 10SM CLR 21/21 A2995 RMK AO2 T02120208
KT74 260435Z AUTO 18004KT 7SM CLR 21/21 A2995 RMK AO2 T02130209
KT74 260415Z AUTO 17003KT 3 1/2SM BR CLR 21/21 A2995 RMK AO2 T02110209
KT74 260355Z AUTO 18003KT 10SM CLR 22/21 A2996 RMK AO2 T02170212
KT74 260335Z AUTO 18003KT 10SM CLR 22/21 A2996 RMK AO2 T02170211
KT74 260315Z AUTO 00000KT 10SM CLR 22/21 A2996 RMK AO2 T02210213
KT74 260255Z AUTO 17003KT 10SM CLR 22/21 A2996 RMK AO2 T02230214
KT74 260235Z AUTO 18003KT 10SM CLR 22/22 A2996 RMK AO2 T02250215
KT74 260215Z AUTO 00000KT 10SM CLR 23/22 A2996 RMK AO2 T02280218
KT74 260155Z AUTO 17003KT 10SM CLR 22/21 A2996 RMK AO2 T02240213
KT74 260135Z AUTO 15003KT 10SM CLR 23/22 A2995 RMK AO2 T02320218
KT74 260115Z AUTO 16004KT 10SM CLR 24/22 A2995 RMK AO2 T02390220
KT74 260055Z AUTO 15005KT 10SM CLR 25/22 A2994 RMK AO2 T02450222
KT74 260035Z AUTO 15005KT 10SM CLR 25/22 A2994 RMK AO2 T02500223
KT74 260015Z AUTO 15006KT 10SM CLR 26/22 A2993 RMK AO2 T02560224
KT74 252355Z AUTO 14006KT 10SM CLR 26/23 A2993 RMK AO2 T02630226 10307 20262 403070196
KT74 252335Z AUTO 15009KT 10SM CLR 27/23 A2992 RMK AO2 T02720226
KT74 252315Z AUTO 15008KT 10SM CLR 28/23 A2992 RMK AO2 T02800229
KT74 252255Z AUTO 14008KT 10SM CLR 29/23 A2991 RMK AO2 T02880231
KT74 252235Z AUTO 15007KT 10SM CLR 29/23 A2991 RMK AO2 T02920227
KT74 252215Z AUTO 15010KT 10SM CLR 30/23 A2991 RMK AO2 T02960231
KT74 252155Z AUTO 16008KT 10SM CLR 30/23 A2991 RMK AO2 T03000232
KT74 252135Z AUTO 15007KT 10SM CLR 30/23 A2991 RMK AO2 T03020231
KT74 252115Z AUTO 15010KT 10SM CLR 30/23 A2991 RMK AO2 T03010229
KT74 252055Z AUTO 13006KT 10SM CLR 30/23 A2991 RMK AO2 T03020232
KT74 252035Z AUTO 15009KT 10SM CLR 30/23 A2992 RMK AO2 T03020230
KT74 252015Z AUTO 15009KT 10SM CLR 30/23 A2992 RMK AO2 T02990231
KT74 251955Z AUTO 16006KT 10SM CLR 30/23 A2993 RMK AO2 T03000231
KT74 251935Z AUTO 17007KT 150V210 10SM SCT022 29/23 A2993 RMK AO2 T02950231
KT74 251915Z AUTO 17009KT 10SM SCT022 29/23 A2994 RMK AO2 T02880228
KT74 251855Z AUTO 15008KT 10SM BKN020 29/23 A2995 RMK AO2 T02900231
KT74 251835Z AUTO 17007KT 10SM BKN018 29/23 A2996 RMK AO2 T02870229
KT74 251815Z AUTO 16008KT 10SM OVC018 27/23 A2997 RMK AO2 T02730226
KT74 251755Z AUTO 18006KT 10SM BKN016 27/23 A2998 RMK AO2 T02740226 10284 20218
KT74 251735Z AUTO 18006KT 10SM OVC016 27/23 A2998 RMK AO2 T02720226
KT74 251715Z AUTO 18004KT 10SM OVC014 27/22 A2999 RMK AO2 T02670224
KT74 251655Z AUTO 16005KT 10SM OVC012 26/22 A2999 RMK AO2 T02620224
KT74 251635Z AUTO 21003KT 10SM OVC010 25/22 A2999 RMK AO2 T02540224
KT74 251615Z AUTO 16005KT 10SM OVC010 25/23 A2999 RMK AO2 T02500225
KT74 251555Z AUTO 17005KT 10SM OVC007 24/22 A2999 RMK AO2 T02440225
KT74 251535Z AUTO 18005KT 10SM OVC007 24/22 A2999 RMK AO2 T02400224
KT74 251515Z AUTO 18005KT 10SM OVC007 24/22 A3000 RMK AO2 T02390224
KT74 251455Z AUTO 20005KT 10SM OVC005 23/22 A2999 RMK AO2 T02350224
KT74 251435Z AUTO 21004KT 10SM OVC005 23/23 A2999 RMK AO2 T02320225
KT74 251415Z AUTO 20006KT 7SM OVC003 23/22 A2998 RMK AO2 T02270222
KT74 251355Z AUTO 22004KT 5SM BR OVC003 23/22 A2998 RMK AO2 T02250221
KT74 251335Z AUTO 21005KT 3 1/2SM BR OVC003 22/22 A2997 RMK AO2 T02240221
KT74 251315Z AUTO 21006KT 2 1/2SM BR OVC003 22/22 A2997 RMK AO2 T02220220
KT74 251255Z AUTO 19006KT 1/2SM FG OVC003 22/22 A2996 RMK AO2 T02210219
KT74 251235Z AUTO 00000KT 1/2SM FG OVC003 22/22 A2995 RMK AO2 T02190217
KT74 251215Z AUTO 18004KT 1/2SM FG OVC003 22/22 A2994 RMK AO2 T02180216
KT74 251155Z AUTO 19005KT 1/2SM FG OVC003 22/22 A2994 RMK AO2 T02170215 10220 20209
KT74 251135Z AUTO 19004KT 1/4SM FG OVC003 22/21 A2993 RMK AO2 T02160214
KT74 251115Z AUTO 17004KT 1 1/2SM BR OVC003 21/21 A2993 RMK AO2 VIS 3/4V3 1/2 T02140212
KT74 251055Z AUTO 00000KT 5SM BR OVC003 21/21 A2992 RMK AO2 T02110208
KT74 251035Z AUTO 16003KT 5SM BR BKN003 21/21 A2991 RMK AO2 T02100207
KT74 251015Z AUTO 00000KT 5SM BR SCT003 21/21 A2991 RMK AO2 T02110208
KT74 250955Z AUTO 17003KT 7SM CLR 21/21 A2991 RMK AO2 T02140210
KT74 250935Z AUTO 17003KT 10SM CLR 22/21 A2991 RMK AO2 T02150210
KT74 250915Z AUTO 20004KT 10SM CLR 22/21 A2990 RMK AO2 T02180213
KT74 250855Z AUTO 20005KT 10SM CLR 22/21 A2990 RMK AO2 T02180213
KT74 250835Z AUTO 20004KT 10SM CLR 22/21 A2991 RMK AO2 T02180212
KT74 250815Z AUTO 20006KT 10SM CLR 22/21 A2991 RMK AO2 T02190212
KT74 250755Z AUTO 20005KT 10SM CLR 22/21 A2991 RMK AO2 T02170210
KT74 250735Z AUTO 20004KT 10SM CLR 21/21 A2991 RMK AO2 T02150206
KT74 250715Z AUTO 19004KT 10SM CLR 22/21 A2991 RMK AO2 T02150205
KT74 250655Z AUTO 18005KT 10SM CLR 21/20 A2991 RMK AO2 T02140204
KT74 250635Z AUTO 19003KT 10SM CLR 21/20 A2990 RMK AO2 T02140202
KT74 250615Z AUTO 18003KT 10SM CLR 22/20 A2991 RMK AO2 T02160203